Albert City, Iowa
Current Conditions -  °F | °C
As of 1:55 PM on Thursday 30 Oct 2014 (Local Time) from KSLB Reporting Station
Clear Clear  
Wind Chill: 15°   Ceiling: Unl
Heat Index: 15°   Visibility: 10mi
Dew Point:   Wind: 16mph
Humidity: 42%   Direction: 340°NNW
Pressure: 30.05"   Gusts: NA
Location:  42.78°N, 94.95°W
Report Text: KSLB 301855Z AUTO 34014KT 10SM CLR 15/02 A3005 RMK AO2
Loading
Personal Weather Stations






























Interactive Weather Map
Tropical Storm Tracking
New forecast layout! Learn more

10-Day Weather Forecast

Advertisements
Track Severe Weather on mobile